createdAt,value
2018-06-23T00:00:59.636Z,3.80
2018-06-23T00:03:28.190Z,5.77
2018-06-23T00:05:56.477Z,5.13
2018-06-23T00:08:25.059Z,2.83
2018-06-23T00:10:53.382Z,5.17
2018-06-23T00:13:22.008Z,3.17
2018-06-23T00:15:50.270Z,4.97
2018-06-23T00:18:18.863Z,5.87
2018-06-23T00:20:47.089Z,2.93
2018-06-23T00:23:15.684Z,4.60
2018-06-23T00:25:49.534Z,6.53
2018-06-23T00:28:17.768Z,3.90
2018-06-23T00:30:46.295Z,5.73
2018-06-23T00:33:14.869Z,3.40
2018-06-23T00:35:43.377Z,4.53
2018-06-23T00:38:12.004Z,4.83
2018-06-23T00:40:40.552Z,4.93
2018-06-23T00:43:09.110Z,5.10
2018-06-23T00:45:37.395Z,6.47
2018-06-23T00:48:06.014Z,5.77
2018-06-23T00:50:34.536Z,6.13
2018-06-23T00:53:03.129Z,4.80
2018-06-23T00:55:31.694Z,3.20
2018-06-23T00:58:00.242Z,8.83
2018-06-23T01:00:28.822Z,5.23
2018-06-23T01:02:57.390Z,2.83
2018-06-23T01:05:25.974Z,8.23
2018-06-23T01:07:55.903Z,7.67
2018-06-23T01:10:24.506Z,4.43
2018-06-23T01:12:53.724Z,3.87
2018-06-23T01:15:22.342Z,4.53
2018-06-23T01:17:50.907Z,7.17
2018-06-23T01:20:19.463Z,5.73
2018-06-23T01:22:47.982Z,1.50
2018-06-23T01:25:16.578Z,7.63
2018-06-23T01:27:45.151Z,10.57
2018-06-23T01:30:13.708Z,9.97
2018-06-23T01:32:42.305Z,10.87
2018-06-23T01:35:10.567Z,12.73
2018-06-23T01:37:39.165Z,6.33
2018-06-23T01:40:07.445Z,6.17
2018-06-23T01:42:36.040Z,7.83
2018-06-23T01:45:04.639Z,11.00
2018-06-23T01:47:33.241Z,4.87
2018-06-23T01:50:01.764Z,4.13
2018-06-23T01:52:30.362Z,11.27
2018-06-23T01:54:58.577Z,7.90
2018-06-23T01:57:27.118Z,7.83
2018-06-23T01:59:55.444Z,4.37
2018-06-23T02:02:24.704Z,7.67
2018-06-23T02:04:53.998Z,8.00
2018-06-23T02:07:22.547Z,9.07
2018-06-23T02:09:51.322Z,4.77
2018-06-23T02:12:20.110Z,8.40
2018-06-23T02:14:54.482Z,7.23
2018-06-23T02:17:28.823Z,8.63
2018-06-23T02:20:03.021Z,6.77
2018-06-23T02:22:37.006Z,6.27
2018-06-23T02:25:10.684Z,10.33
2018-06-23T02:28:44.132Z,9.73
2018-06-23T02:31:18.152Z,9.27
2018-06-23T02:33:51.945Z,8.77
2018-06-23T02:36:20.560Z,9.37
2018-06-23T02:38:49.116Z,14.27
2018-06-23T02:41:17.764Z,8.13
2018-06-23T02:43:46.323Z,8.70
2018-06-23T02:46:14.611Z,6.13
2018-06-23T02:48:43.248Z,6.07
2018-06-23T02:51:11.803Z,8.07
2018-06-23T02:53:40.098Z,10.77
2018-06-23T02:56:08.662Z,9.73
2018-06-23T02:58:36.959Z,11.13
2018-06-23T03:01:05.612Z,7.20
2018-06-23T03:03:34.191Z,12.53
2018-06-23T03:06:02.750Z,10.43
2018-06-23T03:08:31.349Z,13.80
2018-06-23T03:11:00.127Z,15.33
2018-06-23T03:13:28.844Z,10.77
2018-06-23T03:15:57.451Z,13.70
2018-06-23T03:18:26.012Z,16.37
2018-06-23T03:20:56.210Z,21.97
2018-06-23T03:23:25.753Z,11.77
2018-06-23T03:25:55.053Z,9.93
2018-06-23T03:28:24.702Z,15.57
2018-06-23T03:30:54.006Z,14.30
2018-06-23T03:33:23.217Z,17.37
2018-06-23T03:35:51.775Z,13.70
2018-06-23T03:38:20.324Z,6.97
2018-06-23T03:40:48.606Z,14.53
2018-06-23T03:43:16.931Z,10.13
2018-06-23T03:45:47.139Z,17.03
2018-06-23T03:48:15.772Z,11.80
2018-06-23T03:50:44.067Z,14.90
2018-06-23T03:53:12.685Z,14.47
2018-06-23T03:55:41.327Z,14.10
2018-06-23T03:58:09.968Z,9.60
2018-06-23T04:00:42.826Z,16.50
2018-06-23T04:03:11.389Z,13.67
2018-06-23T04:05:44.984Z,18.23
2018-06-23T04:08:13.535Z,13.13
2018-06-23T04:10:42.300Z,17.77
2018-06-23T04:13:10.872Z,12.43
2018-06-23T04:15:39.508Z,13.90
2018-06-23T04:18:07.801Z,11.40
2018-06-23T04:20:36.360Z,13.10
2018-06-23T04:23:04.943Z,16.73
2018-06-23T04:25:33.544Z,11.80
2018-06-23T04:28:02.144Z,14.00
2018-06-23T04:30:30.679Z,9.90
2018-06-23T04:32:59.249Z,11.17
2018-06-23T04:35:27.774Z,13.03
2018-06-23T04:37:56.057Z,19.30
2018-06-23T04:40:25.289Z,11.80
2018-06-23T04:42:53.909Z,13.23
2018-06-23T04:45:22.982Z,11.37
2018-06-23T04:47:51.622Z,8.00
2018-06-23T04:50:20.164Z,14.50
2018-06-23T04:52:48.731Z,8.77
2018-06-23T04:55:17.299Z,12.70
2018-06-23T04:57:45.900Z,13.43
2018-06-23T05:00:14.477Z,10.53
2018-06-23T05:02:43.072Z,14.23
2018-06-23T05:05:11.675Z,15.00
2018-06-23T05:07:40.240Z,13.60
2018-06-23T05:10:08.847Z,15.53
2018-06-23T05:12:37.108Z,12.47
2018-06-23T05:15:05.712Z,18.80
2018-06-23T05:17:33.948Z,11.53
2018-06-23T05:20:02.525Z,15.17
2018-06-23T05:22:31.077Z,13.30
2018-06-23T05:24:59.684Z,14.97
2018-06-23T05:27:28.232Z,15.23
2018-06-23T05:29:56.743Z,10.87
2018-06-23T05:32:26.219Z,13.80
2018-06-23T05:34:55.705Z,17.37
2018-06-23T05:37:25.001Z,14.50
2018-06-23T05:39:53.911Z,11.97
2018-06-23T05:42:22.893Z,12.63
2018-06-23T05:44:51.438Z,14.70
2018-06-23T05:47:20.009Z,10.80
2018-06-23T05:49:48.585Z,13.30
2018-06-23T05:52:17.217Z,11.73
2018-06-23T05:54:45.803Z,12.60
2018-06-23T05:57:14.425Z,9.07
2018-06-23T05:59:43.039Z,13.90
2018-06-23T06:02:12.367Z,10.83
2018-06-23T06:04:41.272Z,14.80
2018-06-23T06:07:09.969Z,12.17
2018-06-23T06:09:38.470Z,9.30
2018-06-23T06:12:07.214Z,14.77
2018-06-23T06:14:35.495Z,7.60
2018-06-23T06:17:22.903Z,10.43
2018-06-23T06:19:54.636Z,10.60
2018-06-23T06:22:24.475Z,9.47
2018-06-23T06:24:53.798Z,7.77
2018-06-23T06:27:22.951Z,6.87
2018-06-23T06:29:53.176Z,4.13
2018-06-23T06:32:21.946Z,13.63
2018-06-23T06:34:50.644Z,7.30
2018-06-23T06:37:19.289Z,9.43
2018-06-23T06:39:48.063Z,9.03
2018-06-23T06:42:16.993Z,16.33
2018-06-23T06:44:45.688Z,6.87
2018-06-23T06:47:17.544Z,8.07
2018-06-23T06:49:46.146Z,8.40
2018-06-23T06:52:14.749Z,12.33
2018-06-23T06:54:43.663Z,5.00
2018-06-23T06:57:12.312Z,9.50
2018-06-23T06:59:40.926Z,11.73
2018-06-23T07:02:09.339Z,9.77
2018-06-23T07:04:37.938Z,9.83
2018-06-23T07:07:06.568Z,12.47
2018-06-23T07:09:34.823Z,6.63
2018-06-23T07:12:03.432Z,7.13
2018-06-23T07:14:32.015Z,9.77
2018-06-23T07:17:00.630Z,12.07
2018-06-23T07:19:28.905Z,6.80
2018-06-23T07:21:57.526Z,8.13
2018-06-23T07:24:26.464Z,7.87
2018-06-23T07:26:56.238Z,6.20
2018-06-23T07:29:25.749Z,7.23
2018-06-23T07:31:55.560Z,7.87
2018-06-23T07:34:25.114Z,3.73
2018-06-23T07:36:54.298Z,6.53
2018-06-23T07:39:23.901Z,4.37
2018-06-23T07:41:52.961Z,4.17
2018-06-23T07:44:21.535Z,2.97
2018-06-23T07:46:50.112Z,3.50
2018-06-23T07:49:18.703Z,1.90
2018-06-23T07:51:47.317Z,1.23
2018-06-23T07:54:15.629Z,2.10
2018-06-23T07:56:44.176Z,4.53
2018-06-23T07:59:12.729Z,3.13
2018-06-23T08:01:41.386Z,3.10
2018-06-23T08:04:09.940Z,4.03
2018-06-23T08:06:38.504Z,1.60
2018-06-23T08:09:07.586Z,1.90
2018-06-23T08:11:36.176Z,2.13
2018-06-23T08:14:04.812Z,4.00
2018-06-23T08:16:33.384Z,1.63
2018-06-23T08:19:01.980Z,1.77
2018-06-23T08:21:30.635Z,1.73
2018-06-23T08:23:59.201Z,2.60
2018-06-23T08:26:27.505Z,1.77
2018-06-23T08:28:56.052Z,1.10
2018-06-23T08:31:24.655Z,1.30
2018-06-23T08:33:54.184Z,2.80
2018-06-23T08:36:24.220Z,2.20
2018-06-23T08:38:54.276Z,1.47
2018-06-23T08:41:23.757Z,2.27
2018-06-23T08:43:52.464Z,4.37
2018-06-23T08:46:20.995Z,3.60
2018-06-23T08:48:49.579Z,2.23
2018-06-23T08:51:18.205Z,1.90
2018-06-23T08:53:46.800Z,6.60
2018-06-23T08:56:15.396Z,2.80
2018-06-23T08:58:43.665Z,3.33
2018-06-23T09:01:11.998Z,3.63
2018-06-23T09:03:40.622Z,3.10
2018-06-23T09:06:08.884Z,2.33
2018-06-23T09:08:37.409Z,7.10
2018-06-23T09:11:06.039Z,4.87
2018-06-23T09:13:34.645Z,1.33
2018-06-23T09:16:03.157Z,2.73
2018-06-23T09:18:31.723Z,2.13
2018-06-23T09:20:59.984Z,2.40
2018-06-23T09:23:28.574Z,2.07
2018-06-23T09:25:56.869Z,1.57
2018-06-23T09:28:26.150Z,1.47
2018-06-23T09:30:54.436Z,1.93
2018-06-23T09:33:23.071Z,2.17
2018-06-23T09:35:51.605Z,1.20
2018-06-23T09:38:19.926Z,1.10
2018-06-23T09:40:48.452Z,1.60
2018-06-23T09:43:16.699Z,5.27
2018-06-23T09:45:45.353Z,2.47
2018-06-23T09:48:13.955Z,1.70
2018-06-23T09:50:42.528Z,2.10
2018-06-23T09:53:11.120Z,0.80
2018-06-23T09:55:39.731Z,0.70
2018-06-23T09:58:08.286Z,1.20
2018-06-23T10:00:37.040Z,1.03
2018-06-23T10:03:05.673Z,1.37
2018-06-23T10:05:34.243Z,1.33
2018-06-23T10:08:02.777Z,1.80
2018-06-23T10:10:31.894Z,1.53
2018-06-23T10:13:00.580Z,0.60
2018-06-23T10:15:29.251Z,2.70
2018-06-23T10:17:57.872Z,0.60
2018-06-23T10:20:26.449Z,0.60
2018-06-23T10:22:56.544Z,1.43
2018-06-23T10:25:26.127Z,1.10
2018-06-23T10:27:55.530Z,1.03
2018-06-23T10:30:25.389Z,0.90
2018-06-23T10:32:54.075Z,2.23
2018-06-23T10:35:23.018Z,1.03
2018-06-23T10:37:51.620Z,0.80
2018-06-23T10:40:20.198Z,0.90
2018-06-23T10:42:48.753Z,1.27
2018-06-23T10:45:17.316Z,1.13
2018-06-23T10:47:46.438Z,0.67
2018-06-23T10:50:15.086Z,1.27
2018-06-23T10:52:44.430Z,0.80
2018-06-23T10:55:13.989Z,2.10
2018-06-23T10:57:43.365Z,1.07
2018-06-23T11:00:12.911Z,0.80
2018-06-23T11:02:46.157Z,1.17
2018-06-23T11:05:15.761Z,0.90
2018-06-23T11:07:45.459Z,1.37
2018-06-23T11:10:15.503Z,0.97
2018-06-23T11:12:45.540Z,1.40
2018-06-23T11:15:15.189Z,1.20
2018-06-23T11:17:45.202Z,1.63
2018-06-23T11:20:14.341Z,2.70
2018-06-23T11:22:44.908Z,3.07
2018-06-23T11:25:14.415Z,1.63
2018-06-23T11:27:43.571Z,4.13
2018-06-23T11:30:12.841Z,3.40
2018-06-23T11:32:42.141Z,1.23
2018-06-23T11:35:11.884Z,1.20
2018-06-23T11:37:41.413Z,1.30
2018-06-23T11:40:10.585Z,1.53
2018-06-23T11:42:39.664Z,1.43
2018-06-23T11:45:09.897Z,1.27
2018-06-23T11:47:39.707Z,1.40
2018-06-23T11:50:08.959Z,1.87
2018-06-23T11:52:38.472Z,1.20
2018-06-23T11:55:08.582Z,1.83
2018-06-23T11:57:38.564Z,1.37
2018-06-23T12:00:13.346Z,2.60
2018-06-23T12:02:43.126Z,1.03
2018-06-23T12:05:13.364Z,1.67
2018-06-23T12:07:42.981Z,2.03
2018-06-23T12:10:16.853Z,2.80
2018-06-23T12:12:49.396Z,2.23
2018-06-23T12:15:19.097Z,3.70
2018-06-23T12:17:48.297Z,2.67
2018-06-23T12:20:17.530Z,3.03
2018-06-23T12:22:46.893Z,1.90
2018-06-23T12:25:16.096Z,3.33
2018-06-23T12:27:45.941Z,2.50
2018-06-23T12:30:14.940Z,4.90
2018-06-23T12:32:49.717Z,2.70
2018-06-23T12:35:18.770Z,3.70
2018-06-23T12:37:55.432Z,3.00
2018-06-23T12:40:26.469Z,2.00
2018-06-23T12:42:56.659Z,2.70
2018-06-23T12:45:27.852Z,3.07
2018-06-23T12:47:56.747Z,4.60
2018-06-23T12:50:26.297Z,2.30
2018-06-23T12:52:56.476Z,2.33
2018-06-23T12:55:26.637Z,2.13
2018-06-23T12:57:56.992Z,2.57
2018-06-23T13:00:26.463Z,3.97
2018-06-23T13:02:56.389Z,2.20
2018-06-23T13:05:26.302Z,7.40
2018-06-23T13:07:56.345Z,2.87
2018-06-23T13:10:26.148Z,4.50
2018-06-23T13:12:56.757Z,3.07
2018-06-23T13:15:26.591Z,4.43
2018-06-23T13:17:56.362Z,2.47
2018-06-23T13:20:27.342Z,7.13
2018-06-23T13:22:57.240Z,3.40
2018-06-23T13:25:26.878Z,5.97
2018-06-23T13:27:56.989Z,3.93
2018-06-23T13:30:27.159Z,4.63
2018-06-23T13:32:56.791Z,4.83
2018-06-23T13:35:26.710Z,4.33
2018-06-23T13:37:56.507Z,9.00
2018-06-23T13:40:29.248Z,3.93
2018-06-23T13:43:02.498Z,4.83
2018-06-23T13:45:31.444Z,5.83
2018-06-23T13:48:00.069Z,5.67
2018-06-23T13:50:29.316Z,4.10
2018-06-23T13:53:03.048Z,9.80
2018-06-23T13:55:31.825Z,3.03
2018-06-23T13:58:00.995Z,3.30
2018-06-23T14:00:38.167Z,3.10
2018-06-23T14:03:08.244Z,1.57
2018-06-23T14:05:37.703Z,1.47
2018-06-23T14:08:06.763Z,1.23
2018-06-23T14:10:35.239Z,3.00
2018-06-23T14:13:05.460Z,2.07
2018-06-23T14:15:34.902Z,2.37
2018-06-23T14:18:04.939Z,2.87
2018-06-23T14:20:35.607Z,1.60
2018-06-23T14:23:04.504Z,5.00
2018-06-23T14:25:33.510Z,4.93
2018-06-23T14:28:02.344Z,3.13
2018-06-23T14:30:31.093Z,3.07
2018-06-23T14:33:00.173Z,6.63
2018-06-23T14:35:30.439Z,4.87
2018-06-23T14:37:59.411Z,3.20
2018-06-23T14:40:29.261Z,5.67
2018-06-23T14:42:57.983Z,3.77
2018-06-23T14:45:27.524Z,5.80
2018-06-23T14:47:57.596Z,4.63
2018-06-23T14:50:26.870Z,6.40
2018-06-23T14:52:57.017Z,5.33
2018-06-23T14:55:35.721Z,2.90
2018-06-23T14:58:05.047Z,5.10
2018-06-23T15:00:33.607Z,5.50
2018-06-23T15:03:01.921Z,5.50
2018-06-23T15:05:30.495Z,4.53
2018-06-23T15:08:10.530Z,5.93
2018-06-23T15:10:50.417Z,3.87
2018-06-23T15:13:19.757Z,1.97
2018-06-23T15:15:48.330Z,8.20
2018-06-23T15:18:16.926Z,6.03
2018-06-23T15:20:45.486Z,6.17
2018-06-23T15:23:14.059Z,8.90
2018-06-23T15:25:42.613Z,5.67
2018-06-23T15:28:11.743Z,7.73
2018-06-23T15:30:40.306Z,4.33
2018-06-23T15:33:08.959Z,7.57
2018-06-23T15:35:37.575Z,7.07
2018-06-23T15:38:06.189Z,7.60
2018-06-23T15:40:34.912Z,9.43
2018-06-23T15:43:03.391Z,6.43
2018-06-23T15:45:31.717Z,7.27
2018-06-23T15:48:00.335Z,7.63
2018-06-23T15:50:28.898Z,5.03
2018-06-23T15:52:57.568Z,9.70
2018-06-23T15:55:27.597Z,4.57
2018-06-23T15:57:56.832Z,3.10
2018-06-23T16:00:25.925Z,3.53
2018-06-23T16:02:54.815Z,5.30
2018-06-23T16:05:23.380Z,3.80
2018-06-23T16:07:51.966Z,6.00
2018-06-23T16:10:23.170Z,7.43
2018-06-23T16:12:52.111Z,5.37
2018-06-23T16:15:20.364Z,6.03
2018-06-23T16:17:48.978Z,5.87
2018-06-23T16:20:17.552Z,9.13
2018-06-23T16:22:47.019Z,6.57
2018-06-23T16:25:16.040Z,8.33
2018-06-23T16:27:44.567Z,11.90
2018-06-23T16:30:13.124Z,10.43
2018-06-23T16:32:42.174Z,7.30
2018-06-23T16:35:10.833Z,9.37
2018-06-23T16:37:39.338Z,6.90
2018-06-23T16:40:07.925Z,6.60
2018-06-23T16:42:36.516Z,5.83
2018-06-23T16:45:05.586Z,7.53
2018-06-23T16:47:34.190Z,2.53
2018-06-23T16:50:03.157Z,6.23
2018-06-23T16:52:31.727Z,4.13
2018-06-23T16:55:00.291Z,3.80
2018-06-23T16:57:28.573Z,2.77
2018-06-23T16:59:58.195Z,5.50
2018-06-23T17:02:27.963Z,3.70
2018-06-23T17:04:57.188Z,5.57
2018-06-23T17:07:26.468Z,4.90
2018-06-23T17:09:55.779Z,14.73
2018-06-23T17:12:24.096Z,10.33
2018-06-23T17:14:52.691Z,20.57
2018-06-23T17:17:21.264Z,21.93
2018-06-23T17:19:49.872Z,7.70
2018-06-23T17:22:18.436Z,7.43
2018-06-23T17:24:46.983Z,21.27
2018-06-23T17:27:15.597Z,7.30
2018-06-23T17:29:44.147Z,3.37
2018-06-23T17:32:12.425Z,4.30
2018-06-23T17:34:40.984Z,4.57
2018-06-23T17:37:09.270Z,7.13
2018-06-23T17:39:37.826Z,4.70
2018-06-23T17:42:06.490Z,4.07
2018-06-23T17:44:35.029Z,7.43
2018-06-23T17:47:04.207Z,5.40
2018-06-23T17:49:32.859Z,5.00
2018-06-23T17:52:01.394Z,3.63
2018-06-23T17:54:30.013Z,3.43
2018-06-23T17:56:58.650Z,6.13
2018-06-23T17:59:27.039Z,4.83
2018-06-23T18:01:56.390Z,3.53
2018-06-23T18:04:25.589Z,8.13
2018-06-23T18:06:54.119Z,4.03
2018-06-23T18:09:22.739Z,5.27
2018-06-23T18:11:51.342Z,3.40
2018-06-23T18:14:19.958Z,5.83
2018-06-23T18:16:48.204Z,5.43
2018-06-23T18:19:16.812Z,5.07
2018-06-23T18:21:46.455Z,7.63
2018-06-23T18:24:15.045Z,3.70
2018-06-23T18:26:43.700Z,3.07
2018-06-23T18:29:12.029Z,2.87
2018-06-23T18:31:40.617Z,4.63
2018-06-23T18:34:11.031Z,4.50
2018-06-23T18:36:39.723Z,4.43
2018-06-23T18:39:09.888Z,2.70
2018-06-23T18:41:38.204Z,3.53
2018-06-23T18:44:07.060Z,3.97
2018-06-23T18:46:35.551Z,4.17
2018-06-23T18:49:04.253Z,4.33
2018-06-23T18:51:33.373Z,5.23
2018-06-23T18:54:02.100Z,3.67
2018-06-23T18:56:30.443Z,3.43
2018-06-23T18:58:59.008Z,4.40
2018-06-23T19:01:28.303Z,4.33
2018-06-23T19:03:57.617Z,3.60
2018-06-23T19:06:27.046Z,3.70
2018-06-23T19:08:56.691Z,5.40
2018-06-23T19:11:25.858Z,5.30
2018-06-23T19:13:54.439Z,6.43
2018-06-23T19:16:23.099Z,7.13
2018-06-23T19:18:51.639Z,5.13
2018-06-23T19:21:20.447Z,8.40
2018-06-23T19:23:49.082Z,8.70
2018-06-23T19:26:17.662Z,8.27
2018-06-23T19:28:46.197Z,7.87
2018-06-23T19:31:14.776Z,8.10
2018-06-23T19:33:43.394Z,5.53
2018-06-23T19:36:11.966Z,10.27
2018-06-23T19:38:40.522Z,9.50
2018-06-23T19:41:19.724Z,10.03
2018-06-23T19:43:48.326Z,8.70
2018-06-23T19:46:17.068Z,7.50
2018-06-23T19:48:45.777Z,7.20
2018-06-23T19:51:15.101Z,7.60
2018-06-23T19:53:43.743Z,8.87
2018-06-23T19:56:12.348Z,10.33
2018-06-23T19:58:40.649Z,9.63
2018-06-23T20:01:09.657Z,8.50
2018-06-23T20:03:38.351Z,9.43
2018-06-23T20:06:07.713Z,8.53
2018-06-23T20:08:36.020Z,9.43
2018-06-23T20:11:04.617Z,8.17
2018-06-23T20:13:33.217Z,10.30
2018-06-23T20:16:01.917Z,10.80
2018-06-23T20:18:30.519Z,10.60
2018-06-23T20:20:58.753Z,10.13
2018-06-23T20:23:28.372Z,10.20
2018-06-23T20:25:58.111Z,8.20
2018-06-23T20:28:26.734Z,11.27
2018-06-23T20:30:55.330Z,12.10
2018-06-23T20:33:23.862Z,6.87
2018-06-23T20:35:52.153Z,8.37
2018-06-23T20:38:20.654Z,9.47
2018-06-23T20:40:49.171Z,13.30
2018-06-23T20:43:17.778Z,9.87
2018-06-23T20:45:46.078Z,9.13
2018-06-23T20:48:14.659Z,11.77
2018-06-23T20:50:44.245Z,7.53
2018-06-23T20:53:12.873Z,8.70
2018-06-23T20:55:41.380Z,9.70
2018-06-23T20:58:10.091Z,8.23
2018-06-23T21:00:38.687Z,6.30
2018-06-23T21:03:07.025Z,6.37
2018-06-23T21:05:35.655Z,11.60
2018-06-23T21:08:03.959Z,7.23
2018-06-23T21:10:41.788Z,9.77
2018-06-23T21:13:10.717Z,11.23
2018-06-23T21:15:39.247Z,9.47
2018-06-23T21:18:08.071Z,9.30
2018-06-23T21:20:36.637Z,10.50
2018-06-23T21:23:05.343Z,9.87
2018-06-23T21:25:33.946Z,10.07
2018-06-23T21:28:02.616Z,8.77
2018-06-23T21:30:31.202Z,8.90
2018-06-23T21:33:00.167Z,7.83
2018-06-23T21:35:29.552Z,11.10
2018-06-23T21:37:59.190Z,11.67
2018-06-23T21:40:28.302Z,10.43
2018-06-23T21:42:57.975Z,6.77
2018-06-23T21:45:27.211Z,7.57
2018-06-23T21:47:55.461Z,8.07
2018-06-23T21:50:24.016Z,7.80
2018-06-23T21:52:52.515Z,7.13
2018-06-23T21:55:21.098Z,8.20
2018-06-23T21:57:49.738Z,7.47
2018-06-23T22:00:37.053Z,6.53
2018-06-23T22:03:09.872Z,6.73
2018-06-23T22:05:38.617Z,10.57
2018-06-23T22:08:07.111Z,8.33
2018-06-23T22:10:35.682Z,9.57
2018-06-23T22:13:04.149Z,9.63
2018-06-23T22:15:32.709Z,12.73
2018-06-23T22:18:01.259Z,9.27
2018-06-23T22:20:29.867Z,10.30
2018-06-23T22:22:59.745Z,6.37
2018-06-23T22:25:29.108Z,9.17
2018-06-23T22:27:58.278Z,9.53
2018-06-23T22:30:27.235Z,8.47
2018-06-23T22:32:55.821Z,9.63
2018-06-23T22:35:24.827Z,6.10
2018-06-23T22:37:53.390Z,9.07
2018-06-23T22:40:21.936Z,7.77
2018-06-23T22:42:50.526Z,9.90
2018-06-23T22:45:19.059Z,8.17
2018-06-23T22:47:47.637Z,6.47
2018-06-23T22:50:16.269Z,6.97
2018-06-23T22:52:44.831Z,4.60
2018-06-23T22:55:13.459Z,5.93
2018-06-23T22:57:41.696Z,6.67
2018-06-23T23:00:12.452Z,6.73
2018-06-23T23:02:41.087Z,6.07
2018-06-23T23:05:10.087Z,5.60
2018-06-23T23:07:39.130Z,7.97
2018-06-23T23:10:07.982Z,6.40
2018-06-23T23:12:36.619Z,5.77
2018-06-23T23:15:05.550Z,6.20
2018-06-23T23:17:34.946Z,4.87
2018-06-23T23:20:03.569Z,5.03
2018-06-23T23:22:32.279Z,5.20
2018-06-23T23:25:00.795Z,9.70
2018-06-23T23:27:30.008Z,5.43
2018-06-23T23:29:58.608Z,8.10
2018-06-23T23:32:27.574Z,10.63
2018-06-23T23:34:56.156Z,6.93
2018-06-23T23:37:24.717Z,7.13
2018-06-23T23:39:53.326Z,8.30
2018-06-23T23:42:21.884Z,8.40
2018-06-23T23:44:50.494Z,8.30
2018-06-23T23:47:19.020Z,7.23
2018-06-23T23:49:47.310Z,5.67
2018-06-23T23:52:15.867Z,7.03
2018-06-23T23:54:44.482Z,5.77
2018-06-23T23:57:13.138Z,9.27
2018-06-23T23:59:41.730Z,10.37
